Pilot information for Zabrat Airport

[ general | frequencies | runways | weather | notam | navaids | links ]

Caution: This page displays community-maintained data: information may be missing, incorrect, or out of date. Please confirm with an official source before making travel plans.

General information for Zabrat Airport

Airport codes: ZXT
Type: regional airport
Scheduled airline service: no
Serves: Baku, Baki, Azerbaijan
Latitude: 40.495542 | 40 29.732533 N | N40 29 43
Longitude: 49.976807 | 49 58.608398 E | E049 58 36
Field elevation: 36 ft/11 m MSL

Radio communication frequencies for Zabrat Airport

No communications frequencies known for Zabrat Airport.

Members can add and update frequencies.

Runways at Zabrat Airport

No runway information available for Zabrat Airport.

Members can add and update runway information.

Aviation weather for Zabrat Airport

Current conditions (METAR) for Zabrat Airport

Closest report is Heydar Aliyev International Airport, 3.6 nm (6.7 km) ESE. Retrieved 2015/01/31 22:00:

UBBB 312200Z 16016KT 9999 SCT010 OVC023 07/06 Q1018 88190068 NOSIG

Forecast (TAF) for Zabrat Airport

Closest forecast is Heydar Aliyev International Airport, 3.6 nm (6.7 km) ESE. Retrieved 2015/01/31 12:33:

TAF TAF UBBB 311106Z 3112/0112 14012KT 6000 -RA BKN008 OVC02

Notices to Airmen (NOTAM) for Zabrat Airport

We have no current NOTAMs for Zabrat Airport. Please check with an official source to confirm.